createdAt,value
2019-03-28T00:00:59.099Z,46.89
2019-03-28T00:03:29.105Z,47.24
2019-03-28T00:05:59.070Z,46.59
2019-03-28T00:08:28.978Z,46.59
2019-03-28T00:10:58.900Z,47.28
2019-03-28T00:13:28.908Z,47.42
2019-03-28T00:16:00.168Z,47.42
2019-03-28T00:18:30.117Z,47.18
2019-03-28T00:21:00.059Z,47.65
2019-03-28T00:23:54.650Z,47.17
2019-03-28T00:26:30.015Z,47.17
2019-03-28T00:28:56.402Z,47.21
2019-03-28T00:31:26.385Z,47.26
2019-03-28T00:33:56.369Z,47.26
2019-03-28T00:36:26.415Z,47.44
2019-03-28T00:38:56.358Z,47.61
2019-03-28T00:41:26.248Z,47.61
2019-03-28T00:43:56.145Z,47.32
2019-03-28T00:46:26.038Z,47.08
2019-03-28T00:48:56.091Z,47.04
2019-03-28T00:51:26.083Z,47.04
2019-03-28T00:53:56.155Z,47.68
2019-03-28T00:56:26.130Z,47.68
2019-03-28T00:58:56.040Z,47.23
2019-03-28T01:01:25.915Z,47.38
2019-03-28T01:03:55.829Z,46.72
2019-03-28T01:06:26.768Z,46.72
2019-03-28T01:08:56.727Z,47.53
2019-03-28T01:11:26.599Z,47.53
2019-03-28T01:13:56.516Z,47.63
2019-03-28T01:16:26.424Z,47.38
2019-03-28T01:18:57.065Z,47.38
2019-03-28T01:21:27.059Z,47.32
2019-03-28T01:23:57.039Z,47.05
2019-03-28T01:26:26.982Z,47.26
2019-03-28T01:28:56.906Z,46.96
2019-03-28T01:31:27.129Z,46.99
2019-03-28T01:33:57.043Z,46.89
2019-03-28T01:36:27.000Z,47.40
2019-03-28T01:38:56.870Z,47.14
2019-03-28T01:41:26.779Z,47.68
2019-03-28T01:43:56.755Z,47.68
2019-03-28T01:46:26.908Z,47.61
2019-03-28T01:48:56.834Z,47.72
2019-03-28T01:51:27.041Z,48.72
2019-03-28T01:53:56.927Z,49.56
2019-03-28T01:56:26.827Z,51.35
2019-03-28T01:58:56.739Z,53.09
2019-03-28T02:01:26.696Z,55.57
2019-03-28T02:03:56.764Z,57.30
2019-03-28T02:06:26.732Z,58.31
2019-03-28T02:08:56.634Z,59.19
2019-03-28T02:11:26.556Z,59.36
2019-03-28T02:13:56.476Z,60.12
2019-03-28T02:16:26.404Z,60.30
2019-03-28T02:18:56.345Z,60.65
2019-03-28T02:21:27.264Z,60.38
2019-03-28T02:23:57.363Z,60.69
2019-03-28T02:26:27.773Z,60.58
2019-03-28T02:28:57.678Z,60.97
2019-03-28T02:31:27.618Z,61.29
2019-03-28T02:33:58.453Z,61.00
2019-03-28T02:36:28.594Z,61.32
2019-03-28T02:38:58.893Z,61.36
2019-03-28T02:41:28.850Z,61.05
2019-03-28T02:43:58.752Z,61.09
2019-03-28T02:46:28.625Z,61.31
2019-03-28T02:48:58.563Z,61.80
2019-03-28T02:51:29.667Z,61.90
2019-03-28T02:54:01.064Z,61.70
2019-03-28T02:56:30.942Z,61.57
2019-03-28T02:59:02.813Z,61.47
2019-03-28T03:01:33.537Z,61.14
2019-03-28T03:04:03.461Z,61.35
2019-03-28T03:06:33.461Z,61.25
2019-03-28T03:09:04.664Z,61.21
2019-03-28T03:11:35.636Z,61.14
2019-03-28T03:14:06.143Z,60.78
2019-03-28T03:16:36.230Z,60.94
2019-03-28T03:19:06.409Z,60.98
2019-03-28T03:21:36.356Z,61.06
2019-03-28T03:24:06.302Z,60.85
2019-03-28T03:26:36.181Z,60.76
2019-03-28T03:29:06.632Z,60.90
2019-03-28T03:31:36.874Z,61.13
2019-03-28T03:34:06.988Z,61.05
2019-03-28T03:36:37.002Z,61.38
2019-03-28T03:39:09.283Z,61.38
2019-03-28T03:41:39.691Z,61.25
2019-03-28T03:44:09.763Z,61.05
2019-03-28T03:46:39.736Z,61.34
2019-03-28T03:49:09.730Z,61.29
2019-03-28T03:51:40.642Z,61.57
2019-03-28T03:54:10.737Z,61.90
2019-03-28T03:56:40.668Z,61.96
2019-03-28T03:59:11.659Z,62.01
2019-03-28T04:01:41.830Z,61.97
2019-03-28T04:04:11.743Z,61.70
2019-03-28T04:06:41.673Z,61.48
2019-03-28T04:09:11.584Z,61.46
2019-03-28T04:11:41.518Z,61.55
2019-03-28T04:14:11.428Z,61.46
2019-03-28T04:16:41.710Z,61.59
2019-03-28T04:19:11.918Z,61.64
2019-03-28T04:21:42.137Z,61.68
2019-03-28T04:24:12.266Z,61.69
2019-03-28T04:26:42.156Z,61.48
2019-03-28T04:29:12.059Z,61.98
2019-03-28T04:31:41.932Z,62.41
2019-03-28T04:34:11.856Z,62.61
2019-03-28T04:36:41.732Z,63.10
2019-03-28T04:39:11.659Z,63.00
2019-03-28T04:41:41.610Z,62.85
2019-03-28T04:44:11.625Z,62.91
2019-03-28T04:46:41.564Z,63.14
2019-03-28T04:49:11.458Z,63.64
2019-03-28T04:51:41.459Z,63.44
2019-03-28T04:54:11.425Z,63.14
2019-03-28T04:56:41.348Z,63.13
2019-03-28T04:59:11.304Z,63.13
2019-03-28T05:01:41.280Z,62.96
2019-03-28T05:04:11.218Z,63.46
2019-03-28T05:06:41.152Z,63.44
2019-03-28T05:09:11.132Z,62.93
2019-03-28T05:11:41.241Z,62.66
2019-03-28T05:14:11.393Z,62.28
2019-03-28T05:16:41.512Z,62.22
2019-03-28T05:19:11.442Z,61.90
2019-03-28T05:21:41.345Z,62.00
2019-03-28T05:24:11.463Z,61.96
2019-03-28T05:26:43.744Z,62.64
2019-03-28T05:29:13.690Z,62.64
2019-03-28T05:31:43.692Z,62.81
2019-03-28T05:34:13.612Z,62.96
2019-03-28T05:36:44.386Z,63.10
2019-03-28T05:39:14.327Z,63.85
2019-03-28T05:41:44.527Z,64.36
2019-03-28T05:44:14.870Z,64.48
2019-03-28T05:46:44.942Z,65.01
2019-03-28T05:49:14.899Z,66.74
2019-03-28T05:51:45.723Z,67.20
2019-03-28T05:54:16.676Z,68.39
2019-03-28T05:56:46.652Z,69.34
2019-03-28T05:59:19.442Z,69.52
2019-03-28T06:01:49.486Z,70.15
2019-03-28T06:04:19.392Z,69.87
2019-03-28T06:06:49.404Z,67.68
2019-03-28T06:09:19.513Z,67.00
2019-03-28T06:11:49.373Z,67.57
2019-03-28T06:14:19.285Z,66.05
2019-03-28T06:16:49.193Z,64.29
2019-03-28T06:19:19.110Z,63.49
2019-03-28T06:21:49.012Z,63.63
2019-03-28T06:24:18.910Z,62.67
2019-03-28T06:26:50.136Z,61.83
2019-03-28T06:29:23.996Z,60.26
2019-03-28T06:31:55.423Z,60.34
2019-03-28T06:34:23.461Z,60.68
2019-03-28T06:36:53.424Z,60.15
2019-03-28T06:39:23.911Z,60.43
2019-03-28T06:41:53.844Z,60.63
2019-03-28T06:44:23.991Z,60.50
2019-03-28T06:46:53.887Z,61.35
2019-03-28T06:49:23.771Z,62.12
2019-03-28T06:51:53.694Z,63.04
2019-03-28T06:54:24.426Z,63.51
2019-03-28T06:56:54.460Z,64.04
2019-03-28T06:59:36.706Z,63.54
2019-03-28T07:01:56.044Z,61.96
2019-03-28T07:04:26.213Z,62.11
2019-03-28T07:06:56.168Z,61.74
2019-03-28T07:09:26.399Z,62.63
2019-03-28T07:11:56.402Z,62.46
2019-03-28T07:14:26.292Z,63.48
2019-03-28T07:16:56.277Z,62.48
2019-03-28T07:19:26.203Z,61.01
2019-03-28T07:21:56.148Z,61.11
2019-03-28T07:24:26.043Z,61.04
2019-03-28T07:26:56.020Z,61.22
2019-03-28T07:29:26.120Z,62.03
2019-03-28T07:31:57.079Z,62.00
2019-03-28T07:34:27.121Z,62.48
2019-03-28T07:36:57.332Z,62.17
2019-03-28T07:39:27.221Z,62.11
2019-03-28T07:41:57.246Z,63.11
2019-03-28T07:44:28.594Z,63.27
2019-03-28T07:46:58.632Z,62.52
2019-03-28T07:49:28.916Z,62.91
2019-03-28T07:51:59.017Z,62.07
2019-03-28T07:54:28.955Z,61.86
2019-03-28T07:56:59.292Z,61.10
2019-03-28T07:59:30.493Z,60.76
2019-03-28T08:02:00.406Z,60.04
2019-03-28T08:04:30.345Z,59.48
2019-03-28T08:07:00.331Z,59.65
2019-03-28T08:09:36.417Z,59.54
2019-03-28T08:12:02.174Z,59.36
2019-03-28T08:14:32.346Z,59.30
2019-03-28T08:17:04.097Z,59.27
2019-03-28T08:19:35.295Z,59.36
2019-03-28T08:22:05.261Z,59.91
2019-03-28T08:24:35.213Z,58.85
2019-03-28T08:27:05.416Z,57.38
2019-03-28T08:29:36.517Z,57.76
2019-03-28T08:32:13.382Z,57.75
2019-03-28T08:34:42.008Z,56.77
2019-03-28T08:37:12.251Z,55.78
2019-03-28T08:39:44.585Z,56.99
2019-03-28T08:42:14.002Z,56.81
2019-03-28T08:44:44.262Z,56.46
2019-03-28T08:47:14.459Z,56.23
2019-03-28T08:49:44.565Z,54.23
2019-03-28T08:52:14.579Z,55.12
2019-03-28T08:54:44.523Z,53.85
2019-03-28T08:57:14.468Z,53.11
2019-03-28T09:02:33.659Z,54.69
2019-03-28T09:05:03.555Z,54.80
2019-03-28T09:07:33.504Z,53.80
2019-03-28T09:10:03.492Z,53.24
2019-03-28T09:12:35.351Z,53.44
2019-03-28T09:17:56.460Z,50.80
2019-03-28T09:20:26.391Z,48.71
2019-03-28T09:22:56.390Z,46.96
2019-03-28T09:25:26.397Z,46.46
2019-03-28T09:27:56.312Z,46.57
2019-03-28T09:30:48.974Z,47.04
2019-03-28T09:33:12.096Z,44.76
2019-03-28T09:35:42.118Z,45.48
2019-03-28T09:38:12.084Z,45.17
2019-03-28T09:40:42.174Z,44.22
2019-03-28T09:43:12.008Z,43.05
2019-03-28T09:45:41.931Z,42.07
2019-03-28T09:48:12.199Z,41.78
2019-03-28T09:50:42.306Z,40.96
2019-03-28T09:53:12.229Z,39.14
2019-03-28T09:55:43.244Z,40.72
2019-03-28T09:58:14.192Z,38.88
2019-03-28T10:00:44.098Z,39.87
2019-03-28T10:03:14.076Z,40.07
2019-03-28T10:05:44.015Z,40.37
2019-03-28T10:08:15.704Z,39.10
2019-03-28T10:10:48.635Z,40.01
2019-03-28T10:13:17.286Z,40.20
2019-03-28T10:15:47.210Z,38.79
2019-03-28T10:18:17.143Z,40.42
2019-03-28T10:20:47.042Z,39.88
2019-03-28T10:23:16.967Z,38.43
2019-03-28T10:25:46.953Z,38.03
2019-03-28T10:28:17.109Z,37.80
2019-03-28T10:30:47.757Z,35.80
2019-03-28T10:33:17.641Z,36.84
2019-03-28T10:35:47.638Z,37.32
2019-03-28T10:38:17.585Z,37.23
2019-03-28T10:40:47.547Z,35.62
2019-03-28T10:43:17.905Z,36.16
2019-03-28T10:45:47.820Z,36.11
2019-03-28T10:48:17.754Z,37.71
2019-03-28T10:50:47.633Z,37.01
2019-03-28T10:53:17.535Z,36.95
2019-03-28T10:55:47.403Z,35.50
2019-03-28T10:58:19.325Z,33.93
2019-03-28T11:00:49.182Z,33.60
2019-03-28T11:03:19.116Z,33.94
2019-03-28T11:05:49.024Z,34.20
2019-03-28T11:08:18.932Z,34.18
2019-03-28T11:10:48.960Z,33.26
2019-03-28T11:13:18.890Z,34.69
2019-03-28T11:15:48.816Z,36.30
2019-03-28T11:18:18.790Z,34.38
2019-03-28T11:20:49.910Z,32.30
2019-03-28T11:23:19.811Z,32.09
2019-03-28T11:25:49.712Z,32.80
2019-03-28T11:28:19.633Z,36.30
2019-03-28T11:30:49.525Z,35.90
2019-03-28T11:33:19.455Z,35.72
2019-03-28T11:35:49.388Z,36.98
2019-03-28T11:38:19.301Z,37.74
2019-03-28T11:40:50.639Z,37.94
2019-03-28T11:43:20.629Z,37.53
2019-03-28T11:45:50.510Z,37.38
2019-03-28T11:48:20.850Z,37.62
2019-03-28T11:50:50.739Z,38.75
2019-03-28T11:53:20.645Z,39.46
2019-03-28T11:55:50.713Z,39.49
2019-03-28T11:58:20.636Z,40.43
2019-03-28T12:00:51.335Z,40.70
2019-03-28T12:03:21.225Z,40.98
2019-03-28T12:05:53.121Z,37.14
2019-03-28T12:08:23.082Z,34.91
2019-03-28T12:10:53.031Z,36.88
2019-03-28T12:13:22.917Z,39.26
2019-03-28T12:15:53.151Z,37.90
2019-03-28T12:18:25.128Z,36.71
2019-03-28T12:20:55.095Z,36.17
2019-03-28T12:23:25.034Z,35.86
2019-03-28T12:25:54.943Z,34.82
2019-03-28T12:28:24.965Z,35.58
2019-03-28T12:30:54.851Z,35.30
2019-03-28T12:33:24.753Z,35.55
2019-03-28T12:35:54.637Z,36.86
2019-03-28T12:38:24.880Z,37.93
2019-03-28T12:40:55.116Z,38.92
2019-03-28T12:43:25.005Z,37.93
2019-03-28T12:45:54.959Z,37.90
2019-03-28T12:48:24.976Z,37.90
2019-03-28T12:50:58.928Z,37.68
2019-03-28T12:53:26.605Z,37.60
2019-03-28T12:55:56.512Z,37.62
2019-03-28T12:58:26.450Z,37.33
2019-03-28T13:00:56.584Z,36.46
2019-03-28T13:03:29.835Z,35.90
2019-03-28T13:05:58.775Z,36.01
2019-03-28T13:08:28.689Z,36.30
2019-03-28T13:10:58.903Z,37.22
2019-03-28T13:13:29.473Z,37.37
2019-03-28T13:15:59.572Z,37.48
2019-03-28T13:18:29.543Z,36.50
2019-03-28T13:21:12.367Z,36.27
2019-03-28T13:23:31.173Z,35.58
2019-03-28T13:26:01.145Z,34.79
2019-03-28T13:28:31.082Z,34.56
2019-03-28T13:31:01.207Z,34.92
2019-03-28T13:33:31.112Z,36.29
2019-03-28T13:36:01.090Z,36.12
2019-03-28T13:38:30.983Z,36.13
2019-03-28T13:41:00.901Z,36.94
2019-03-28T13:43:30.958Z,37.71
2019-03-28T13:46:00.867Z,37.80
2019-03-28T13:48:31.991Z,37.69
2019-03-28T13:51:01.883Z,37.03
2019-03-28T13:53:39.487Z,37.65
2019-03-28T13:56:03.566Z,36.66
2019-03-28T13:58:33.509Z,36.96
2019-03-28T14:01:03.521Z,37.08
2019-03-28T14:03:33.370Z,36.86
2019-03-28T14:06:03.279Z,36.90
2019-03-28T14:08:33.413Z,36.80
2019-03-28T14:11:03.343Z,35.92
2019-03-28T14:13:33.304Z,36.37
2019-03-28T14:16:03.237Z,36.34
2019-03-28T14:18:33.183Z,36.28
2019-03-28T14:21:03.513Z,36.42
2019-03-28T14:23:33.428Z,36.22
2019-03-28T14:26:03.327Z,36.44
2019-03-28T14:28:33.226Z,36.86
2019-03-28T14:31:03.269Z,36.24
2019-03-28T14:33:33.202Z,35.21
2019-03-28T14:36:04.484Z,34.96
2019-03-28T14:38:37.259Z,33.81
2019-03-28T14:41:07.324Z,33.51
2019-03-28T14:43:37.355Z,32.77
2019-03-28T14:46:07.369Z,32.84
2019-03-28T14:48:37.417Z,32.72
2019-03-28T14:51:07.459Z,33.54
2019-03-28T14:53:37.389Z,33.51
2019-03-28T14:56:07.660Z,33.14
2019-03-28T14:58:38.542Z,33.75
2019-03-28T15:01:08.461Z,33.50
2019-03-28T15:03:38.485Z,33.30
2019-03-28T15:06:08.558Z,33.16
2019-03-28T15:08:38.909Z,32.50
2019-03-28T15:11:08.813Z,32.81
2019-03-28T15:13:40.435Z,32.85
2019-03-28T15:16:11.201Z,33.00
2019-03-28T15:18:41.506Z,32.94
2019-03-28T15:21:11.377Z,33.30
2019-03-28T15:23:41.294Z,33.59
2019-03-28T15:26:11.262Z,33.73
2019-03-28T15:28:41.154Z,33.67
2019-03-28T15:31:11.084Z,33.39
2019-03-28T15:33:40.977Z,33.48
2019-03-28T15:36:10.897Z,33.69
2019-03-28T15:38:40.800Z,33.97
2019-03-28T15:41:10.745Z,33.97
2019-03-28T15:43:40.660Z,34.16
2019-03-28T15:46:10.597Z,34.07
2019-03-28T15:48:40.487Z,33.88
2019-03-28T15:51:10.518Z,34.23
2019-03-28T15:53:41.201Z,34.58
2019-03-28T15:56:11.133Z,34.81
2019-03-28T15:58:41.082Z,35.37
2019-03-28T16:01:11.134Z,35.75
2019-03-28T16:03:52.467Z,36.14
2019-03-28T16:06:12.654Z,36.48
2019-03-28T16:08:42.963Z,36.64
2019-03-28T16:11:12.832Z,36.75
2019-03-28T16:13:42.702Z,37.01
2019-03-28T16:16:12.601Z,36.96
2019-03-28T16:18:42.518Z,36.95
2019-03-28T16:21:12.414Z,36.95
2019-03-28T16:23:42.390Z,36.88
2019-03-28T16:26:12.276Z,37.12
2019-03-28T16:28:42.269Z,37.35
2019-03-28T16:31:12.163Z,37.53
2019-03-28T16:33:42.056Z,37.67
2019-03-28T16:36:13.045Z,37.80
2019-03-28T16:38:43.010Z,38.03
2019-03-28T16:41:12.987Z,38.22
2019-03-28T16:43:42.923Z,38.48
2019-03-28T16:46:12.817Z,38.75
2019-03-28T16:48:42.979Z,38.82
2019-03-28T16:51:13.119Z,39.08
2019-03-28T16:53:43.059Z,39.56
2019-03-28T16:56:12.988Z,39.82
2019-03-28T16:58:42.904Z,40.31
2019-03-28T17:01:12.899Z,40.63
2019-03-28T17:03:43.274Z,41.01
2019-03-28T17:06:13.380Z,41.29
2019-03-28T17:08:45.105Z,41.65
2019-03-28T17:11:15.671Z,41.88
2019-03-28T17:13:46.485Z,41.96
2019-03-28T17:16:16.864Z,42.09
2019-03-28T17:18:46.918Z,42.17
2019-03-28T17:21:17.365Z,42.21
2019-03-28T17:23:47.793Z,42.41
2019-03-28T17:26:17.779Z,42.45
2019-03-28T17:28:47.909Z,42.67
2019-03-28T17:31:19.011Z,42.65
2019-03-28T17:33:49.227Z,42.91
2019-03-28T17:36:19.261Z,42.93
2019-03-28T17:38:49.306Z,43.18
2019-03-28T17:41:19.290Z,43.15
2019-03-28T17:43:49.224Z,43.31
2019-03-28T17:46:19.232Z,43.48
2019-03-28T17:48:49.250Z,43.85
2019-03-28T17:51:19.585Z,44.19
2019-03-28T17:53:49.563Z,44.40
2019-03-28T17:56:19.602Z,44.62
2019-03-28T17:58:50.015Z,44.80
2019-03-28T18:01:19.966Z,44.84
2019-03-28T18:03:50.067Z,45.36
2019-03-28T18:06:19.990Z,45.53
2019-03-28T18:08:49.914Z,45.50
2019-03-28T18:11:20.184Z,45.69
2019-03-28T18:13:50.135Z,45.66
2019-03-28T18:16:20.086Z,45.90
2019-03-28T18:18:50.010Z,46.00
2019-03-28T18:21:20.171Z,46.14
2019-03-28T18:23:50.281Z,46.17
2019-03-28T18:26:21.147Z,46.35
2019-03-28T18:28:51.454Z,46.47
2019-03-28T18:31:21.420Z,46.54
2019-03-28T18:33:51.382Z,46.69
2019-03-28T18:36:21.394Z,46.86
2019-03-28T18:38:52.617Z,47.18
2019-03-28T18:41:22.505Z,47.26
2019-03-28T18:43:52.541Z,47.45
2019-03-28T18:46:22.705Z,47.39
2019-03-28T18:48:52.622Z,47.47
2019-03-28T18:51:22.761Z,47.53
2019-03-28T18:53:52.693Z,47.59
2019-03-28T18:56:22.649Z,47.92
2019-03-28T18:58:52.551Z,47.95
2019-03-28T19:01:22.573Z,47.72
2019-03-28T19:03:52.522Z,47.59
2019-03-28T19:06:22.451Z,47.45
2019-03-28T19:08:52.352Z,47.67
2019-03-28T19:11:22.239Z,47.65
2019-03-28T19:13:52.168Z,47.73
2019-03-28T19:16:22.262Z,47.59
2019-03-28T19:18:52.714Z,47.80
2019-03-28T19:21:22.678Z,48.03
2019-03-28T19:23:52.662Z,47.81
2019-03-28T19:26:22.581Z,47.77
2019-03-28T19:28:56.075Z,47.55
2019-03-28T19:31:24.843Z,47.50
2019-03-28T19:33:54.733Z,47.64
2019-03-28T19:36:24.990Z,47.77
2019-03-28T19:38:55.582Z,49.24
2019-03-28T19:41:25.592Z,47.79
2019-03-28T19:43:56.997Z,46.82
2019-03-28T19:46:27.018Z,45.55
2019-03-28T19:48:56.927Z,46.04
2019-03-28T19:51:28.387Z,46.01
2019-03-28T19:53:58.610Z,44.99
2019-03-28T19:56:28.566Z,44.95
2019-03-28T19:58:59.241Z,44.33
2019-03-28T20:01:29.295Z,42.43
2019-03-28T20:03:59.165Z,45.51
2019-03-28T20:06:29.331Z,41.26
2019-03-28T20:08:59.308Z,43.50
2019-03-28T20:11:29.267Z,42.66
2019-03-28T20:13:59.177Z,42.12
2019-03-28T20:16:29.110Z,42.08
2019-03-28T20:18:59.178Z,42.47
2019-03-28T20:21:29.565Z,43.74
2019-03-28T20:23:59.491Z,42.88
2019-03-28T20:26:29.861Z,42.63
2019-03-28T20:29:00.052Z,42.48
2019-03-28T20:31:29.967Z,43.31
2019-03-28T20:34:00.137Z,42.75
2019-03-28T20:36:37.580Z,43.00
2019-03-28T20:39:04.262Z,43.25
2019-03-28T20:41:33.515Z,42.42
2019-03-28T20:44:03.418Z,43.50
2019-03-28T20:46:33.416Z,43.42
2019-03-28T20:49:03.376Z,44.04
2019-03-28T20:51:33.278Z,44.58
2019-03-28T20:54:03.781Z,44.94
2019-03-28T20:56:34.777Z,45.57
2019-03-28T20:59:05.607Z,45.05
2019-03-28T21:01:36.761Z,45.97
2019-03-28T21:04:07.815Z,45.97
2019-03-28T21:06:37.878Z,45.81
2019-03-28T21:09:08.705Z,46.43
2019-03-28T21:11:38.963Z,46.31
2019-03-28T21:14:08.897Z,46.42
2019-03-28T21:16:38.901Z,46.42
2019-03-28T21:19:08.876Z,46.25
2019-03-28T21:21:38.777Z,46.25
2019-03-28T21:24:09.048Z,46.31
2019-03-28T21:26:38.946Z,45.92
2019-03-28T21:29:09.244Z,45.92
2019-03-28T21:31:49.214Z,46.61
2019-03-28T21:34:11.061Z,47.92
2019-03-28T21:36:41.107Z,47.80
2019-03-28T21:39:11.213Z,47.33
2019-03-28T21:41:41.132Z,47.11
2019-03-28T21:44:11.046Z,47.09
2019-03-28T21:46:41.074Z,47.84
2019-03-28T21:49:11.587Z,47.25
2019-03-28T21:51:45.665Z,47.97
2019-03-28T21:54:14.144Z,47.76
2019-03-28T21:56:44.108Z,47.30
2019-03-28T21:59:14.073Z,47.88
2019-03-28T22:01:43.990Z,48.17
2019-03-28T22:04:13.925Z,48.38
2019-03-28T22:06:43.879Z,47.89
2019-03-28T22:09:13.839Z,47.26
2019-03-28T22:11:43.790Z,47.86
2019-03-28T22:14:13.883Z,48.28
2019-03-28T22:16:43.975Z,48.35
2019-03-28T22:19:13.925Z,48.79
2019-03-28T22:21:44.453Z,48.78
2019-03-28T22:24:14.393Z,48.22
2019-03-28T22:26:46.022Z,48.20
2019-03-28T22:29:16.206Z,48.46
2019-03-28T22:31:46.246Z,49.49
2019-03-28T22:34:16.171Z,48.69
2019-03-28T22:36:56.673Z,49.85
2019-03-28T22:39:17.731Z,49.06
2019-03-28T22:41:48.259Z,49.39
2019-03-28T22:44:18.842Z,50.18
2019-03-28T22:46:48.722Z,50.18
2019-03-28T22:49:18.661Z,49.68
2019-03-28T22:51:48.583Z,49.82
2019-03-28T22:54:18.499Z,49.82
2019-03-28T22:56:48.543Z,50.55
2019-03-28T22:59:19.831Z,50.07
2019-03-28T23:01:49.871Z,50.28
2019-03-28T23:04:19.928Z,51.34
2019-03-28T23:06:49.899Z,51.34
2019-03-28T23:09:19.790Z,51.59
2019-03-28T23:11:49.788Z,51.36
2019-03-28T23:14:20.226Z,51.36
2019-03-28T23:16:50.264Z,52.44
2019-03-28T23:19:20.155Z,52.44
2019-03-28T23:21:50.139Z,52.08
2019-03-28T23:24:20.400Z,52.32
2019-03-28T23:26:50.308Z,52.99
2019-03-28T23:29:20.305Z,52.35
2019-03-28T23:31:50.842Z,53.44
2019-03-28T23:34:20.786Z,52.28
2019-03-28T23:36:50.674Z,52.28
2019-03-28T23:39:20.597Z,52.22
2019-03-28T23:41:50.532Z,52.19
2019-03-28T23:44:20.446Z,52.54
2019-03-28T23:46:50.383Z,52.54
2019-03-28T23:49:20.332Z,53.31
2019-03-28T23:51:51.560Z,52.62
2019-03-28T23:54:21.474Z,52.62
2019-03-28T23:56:51.439Z,53.02
2019-03-28T23:59:21.355Z,52.56
